sensor_id;sensor_type;location;lat;lon;timestamp;P1;durP1;ratioP1;P2;durP2;ratioP2
76310;SDS011;65120;59.304;18.294;2023-02-08T00:00:50;13.07;;;0.82;;
76310;SDS011;65120;59.304;18.294;2023-02-08T00:03:19;5.72;;;0.93;;
76310;SDS011;65120;59.304;18.294;2023-02-08T00:05:46;10.73;;;0.90;;
76310;SDS011;65120;59.304;18.294;2023-02-08T00:08:13;9.75;;;1.08;;
76310;SDS011;65120;59.304;18.294;2023-02-08T00:10:40;11.13;;;1.00;;
76310;SDS011;65120;59.304;18.294;2023-02-08T00:13:07;5.30;;;1.10;;
76310;SDS011;65120;59.304;18.294;2023-02-08T00:15:34;7.07;;;2.65;;
76310;SDS011;65120;59.304;18.294;2023-02-08T00:18:01;6.47;;;1.52;;
76310;SDS011;65120;59.304;18.294;2023-02-08T00:20:29;7.85;;;1.02;;
76310;SDS011;65120;59.304;18.294;2023-02-08T00:22:56;10.95;;;0.85;;
76310;SDS011;65120;59.304;18.294;2023-02-08T00:25:23;11.15;;;0.93;;
76310;SDS011;65120;59.304;18.294;2023-02-08T00:27:50;6.78;;;0.98;;
76310;SDS011;65120;59.304;18.294;2023-02-08T00:30:16;10.25;;;0.88;;
76310;SDS011;65120;59.304;18.294;2023-02-08T00:32:43;6.40;;;0.82;;
76310;SDS011;65120;59.304;18.294;2023-02-08T00:35:10;9.13;;;0.85;;
76310;SDS011;65120;59.304;18.294;2023-02-08T00:37:39;6.00;;;0.65;;
76310;SDS011;65120;59.304;18.294;2023-02-08T00:40:06;5.47;;;0.57;;
76310;SDS011;65120;59.304;18.294;2023-02-08T00:42:33;10.50;;;1.38;;
76310;SDS011;65120;59.304;18.294;2023-02-08T00:45:00;9.75;;;1.23;;
76310;SDS011;65120;59.304;18.294;2023-02-08T00:47:27;12.35;;;1.27;;
76310;SDS011;65120;59.304;18.294;2023-02-08T00:49:54;11.98;;;1.20;;
76310;SDS011;65120;59.304;18.294;2023-02-08T00:52:21;11.13;;;1.50;;
76310;SDS011;65120;59.304;18.294;2023-02-08T00:54:49;16.83;;;1.30;;
76310;SDS011;65120;59.304;18.294;2023-02-08T00:57:16;15.88;;;1.77;;
76310;SDS011;65120;59.304;18.294;2023-02-08T00:59:43;13.07;;;1.00;;
76310;SDS011;65120;59.304;18.294;2023-02-08T01:02:10;12.05;;;0.82;;
76310;SDS011;65120;59.304;18.294;2023-02-08T01:04:37;13.65;;;1.88;;
76310;SDS011;65120;59.304;18.294;2023-02-08T01:07:04;13.10;;;0.90;;
76310;SDS011;65120;59.304;18.294;2023-02-08T01:09:32;4.53;;;1.45;;
76310;SDS011;65120;59.304;18.294;2023-02-08T01:12:00;10.02;;;1.02;;
76310;SDS011;65120;59.304;18.294;2023-02-08T01:14:27;13.57;;;0.88;;
76310;SDS011;65120;59.304;18.294;2023-02-08T01:16:54;9.90;;;1.27;;
76310;SDS011;65120;59.304;18.294;2023-02-08T01:19:21;7.97;;;1.02;;
76310;SDS011;65120;59.304;18.294;2023-02-08T01:21:48;19.00;;;1.20;;
76310;SDS011;65120;59.304;18.294;2023-02-08T01:24:15;8.68;;;0.95;;
76310;SDS011;65120;59.304;18.294;2023-02-08T01:26:42;6.85;;;0.95;;
76310;SDS011;65120;59.304;18.294;2023-02-08T01:29:11;9.38;;;1.00;;
76310;SDS011;65120;59.304;18.294;2023-02-08T01:31:38;9.13;;;1.63;;
76310;SDS011;65120;59.304;18.294;2023-02-08T01:34:07;12.27;;;1.13;;
76310;SDS011;65120;59.304;18.294;2023-02-08T01:36:34;19.92;;;1.30;;
76310;SDS011;65120;59.304;18.294;2023-02-08T01:39:02;10.95;;;1.05;;
76310;SDS011;65120;59.304;18.294;2023-02-08T01:41:31;8.18;;;0.98;;
76310;SDS011;65120;59.304;18.294;2023-02-08T01:44:01;5.10;;;0.80;;
76310;SDS011;65120;59.304;18.294;2023-02-08T01:46:32;17.70;;;1.35;;
76310;SDS011;65120;59.304;18.294;2023-02-08T01:49:01;22.48;;;2.42;;
76310;SDS011;65120;59.304;18.294;2023-02-08T01:51:42;5.88;;;1.50;;
76310;SDS011;65120;59.304;18.294;2023-02-08T01:54:10;8.40;;;1.52;;
76310;SDS011;65120;59.304;18.294;2023-02-08T01:56:41;11.95;;;2.30;;
76310;SDS011;65120;59.304;18.294;2023-02-08T01:59:16;15.35;;;1.27;;
76310;SDS011;65120;59.304;18.294;2023-02-08T02:01:46;20.85;;;4.25;;
76310;SDS011;65120;59.304;18.294;2023-02-08T02:04:16;22.98;;;2.30;;
76310;SDS011;65120;59.304;18.294;2023-02-08T02:06:44;23.13;;;2.70;;
76310;SDS011;65120;59.304;18.294;2023-02-08T02:09:15;19.02;;;2.35;;
76310;SDS011;65120;59.304;18.294;2023-02-08T02:11:46;21.58;;;2.08;;
76310;SDS011;65120;59.304;18.294;2023-02-08T02:14:15;12.90;;;2.38;;
76310;SDS011;65120;59.304;18.294;2023-02-08T02:16:42;23.40;;;2.83;;
76310;SDS011;65120;59.304;18.294;2023-02-08T02:19:13;17.10;;;2.47;;
76310;SDS011;65120;59.304;18.294;2023-02-08T02:21:49;26.05;;;3.45;;
76310;SDS011;65120;59.304;18.294;2023-02-08T02:27:39;14.40;;;2.80;;
76310;SDS011;65120;59.304;18.294;2023-02-08T02:30:43;13.98;;;2.45;;
76310;SDS011;65120;59.304;18.294;2023-02-08T02:33:43;11.45;;;2.47;;
76310;SDS011;65120;59.304;18.294;2023-02-08T02:36:23;21.10;;;2.80;;
76310;SDS011;65120;59.304;18.294;2023-02-08T02:39:00;21.52;;;2.85;;
76310;SDS011;65120;59.304;18.294;2023-02-08T02:41:37;14.20;;;2.25;;
76310;SDS011;65120;59.304;18.294;2023-02-08T02:44:31;14.93;;;2.33;;
76310;SDS011;65120;59.304;18.294;2023-02-08T02:47:09;21.48;;;3.67;;
76310;SDS011;65120;59.304;18.294;2023-02-08T02:49:46;18.48;;;3.00;;
76310;SDS011;65120;59.304;18.294;2023-02-08T02:52:17;15.27;;;2.92;;
76310;SDS011;65120;59.304;18.294;2023-02-08T02:54:50;19.73;;;2.40;;
76310;SDS011;65120;59.304;18.294;2023-02-08T02:57:20;22.83;;;3.55;;
76310;SDS011;65120;59.304;18.294;2023-02-08T02:59:51;17.00;;;2.80;;
76310;SDS011;65120;59.304;18.294;2023-02-08T03:02:18;18.83;;;4.22;;
76310;SDS011;65120;59.304;18.294;2023-02-08T03:04:48;16.08;;;2.95;;
76310;SDS011;65120;59.304;18.294;2023-02-08T03:07:23;14.55;;;3.30;;
76310;SDS011;65120;59.304;18.294;2023-02-08T03:10:13;10.93;;;3.28;;
76310;SDS011;65120;59.304;18.294;2023-02-08T03:12:52;18.42;;;2.78;;
76310;SDS011;65120;59.304;18.294;2023-02-08T03:15:27;20.58;;;4.70;;
76310;SDS011;65120;59.304;18.294;2023-02-08T03:18:03;11.73;;;3.97;;
76310;SDS011;65120;59.304;18.294;2023-02-08T03:20:39;20.00;;;3.92;;
76310;SDS011;65120;59.304;18.294;2023-02-08T03:23:12;13.23;;;2.67;;
76310;SDS011;65120;59.304;18.294;2023-02-08T03:25:47;15.23;;;3.20;;
76310;SDS011;65120;59.304;18.294;2023-02-08T03:28:19;25.23;;;4.72;;
76310;SDS011;65120;59.304;18.294;2023-02-08T03:30:53;21.58;;;4.72;;
76310;SDS011;65120;59.304;18.294;2023-02-08T03:33:29;27.02;;;4.38;;
76310;SDS011;65120;59.304;18.294;2023-02-08T03:36:03;16.50;;;3.85;;
76310;SDS011;65120;59.304;18.294;2023-02-08T03:38:34;19.90;;;3.78;;
76310;SDS011;65120;59.304;18.294;2023-02-08T03:41:04;23.02;;;4.65;;
76310;SDS011;65120;59.304;18.294;2023-02-08T03:43:36;19.88;;;3.50;;
76310;SDS011;65120;59.304;18.294;2023-02-08T03:46:06;22.17;;;2.97;;
76310;SDS011;65120;59.304;18.294;2023-02-08T03:48:37;14.25;;;2.83;;
76310;SDS011;65120;59.304;18.294;2023-02-08T03:51:08;12.02;;;3.55;;
76310;SDS011;65120;59.304;18.294;2023-02-08T03:53:36;14.13;;;3.53;;
76310;SDS011;65120;59.304;18.294;2023-02-08T03:56:07;16.02;;;3.97;;
76310;SDS011;65120;59.304;18.294;2023-02-08T03:58:39;13.18;;;3.15;;
76310;SDS011;65120;59.304;18.294;2023-02-08T04:01:13;17.45;;;3.60;;
76310;SDS011;65120;59.304;18.294;2023-02-08T04:03:43;20.08;;;3.65;;
76310;SDS011;65120;59.304;18.294;2023-02-08T04:06:15;14.13;;;3.83;;
76310;SDS011;65120;59.304;18.294;2023-02-08T04:08:43;14.20;;;2.40;;
76310;SDS011;65120;59.304;18.294;2023-02-08T04:11:09;15.38;;;3.20;;
76310;SDS011;65120;59.304;18.294;2023-02-08T04:13:36;14.07;;;2.83;;
76310;SDS011;65120;59.304;18.294;2023-02-08T04:16:03;12.80;;;2.72;;
76310;SDS011;65120;59.304;18.294;2023-02-08T04:18:30;20.80;;;3.45;;
76310;SDS011;65120;59.304;18.294;2023-02-08T04:20:57;11.77;;;2.85;;
76310;SDS011;65120;59.304;18.294;2023-02-08T04:23:25;12.38;;;2.55;;
76310;SDS011;65120;59.304;18.294;2023-02-08T04:25:52;23.27;;;3.78;;
76310;SDS011;65120;59.304;18.294;2023-02-08T04:28:19;10.85;;;3.17;;
76310;SDS011;65120;59.304;18.294;2023-02-08T04:30:46;23.55;;;4.80;;
76310;SDS011;65120;59.304;18.294;2023-02-08T04:33:13;15.75;;;3.60;;
76310;SDS011;65120;59.304;18.294;2023-02-08T04:35:40;25.40;;;2.67;;
76310;SDS011;65120;59.304;18.294;2023-02-08T04:38:08;11.98;;;3.25;;
76310;SDS011;65120;59.304;18.294;2023-02-08T04:40:36;17.13;;;2.95;;
76310;SDS011;65120;59.304;18.294;2023-02-08T04:43:03;12.65;;;2.33;;
76310;SDS011;65120;59.304;18.294;2023-02-08T04:45:30;15.65;;;3.00;;
76310;SDS011;65120;59.304;18.294;2023-02-08T04:47:57;14.75;;;3.08;;
76310;SDS011;65120;59.304;18.294;2023-02-08T04:50:26;14.50;;;2.95;;
76310;SDS011;65120;59.304;18.294;2023-02-08T04:52:52;11.30;;;2.20;;
76310;SDS011;65120;59.304;18.294;2023-02-08T04:55:19;10.07;;;2.40;;
76310;SDS011;65120;59.304;18.294;2023-02-08T04:57:47;12.82;;;3.13;;
76310;SDS011;65120;59.304;18.294;2023-02-08T05:00:15;10.32;;;2.80;;
76310;SDS011;65120;59.304;18.294;2023-02-08T05:02:43;12.45;;;2.72;;
76310;SDS011;65120;59.304;18.294;2023-02-08T05:05:10;20.50;;;3.05;;
76310;SDS011;65120;59.304;18.294;2023-02-08T05:07:37;17.20;;;2.45;;
76310;SDS011;65120;59.304;18.294;2023-02-08T05:10:04;17.80;;;3.25;;
76310;SDS011;65120;59.304;18.294;2023-02-08T05:12:31;12.70;;;3.45;;
76310;SDS011;65120;59.304;18.294;2023-02-08T05:14:59;20.48;;;3.42;;
76310;SDS011;65120;59.304;18.294;2023-02-08T05:17:26;14.38;;;3.17;;
76310;SDS011;65120;59.304;18.294;2023-02-08T05:19:53;15.80;;;3.40;;
76310;SDS011;65120;59.304;18.294;2023-02-08T05:22:20;9.30;;;3.40;;
76310;SDS011;65120;59.304;18.294;2023-02-08T05:24:46;14.45;;;3.92;;
76310;SDS011;65120;59.304;18.294;2023-02-08T05:27:13;17.52;;;3.10;;
76310;SDS011;65120;59.304;18.294;2023-02-08T05:29:40;11.80;;;3.58;;
76310;SDS011;65120;59.304;18.294;2023-02-08T05:32:09;18.88;;;4.15;;
76310;SDS011;65120;59.304;18.294;2023-02-08T05:34:36;29.05;;;4.90;;
76310;SDS011;65120;59.304;18.294;2023-02-08T05:37:04;17.70;;;3.70;;
76310;SDS011;65120;59.304;18.294;2023-02-08T05:39:31;11.20;;;4.22;;
76310;SDS011;65120;59.304;18.294;2023-02-08T05:41:58;22.45;;;3.90;;
76310;SDS011;65120;59.304;18.294;2023-02-08T05:44:25;13.40;;;3.55;;
76310;SDS011;65120;59.304;18.294;2023-02-08T05:46:51;17.73;;;3.85;;
76310;SDS011;65120;59.304;18.294;2023-02-08T05:49:20;17.75;;;4.35;;
76310;SDS011;65120;59.304;18.294;2023-02-08T05:51:47;15.15;;;3.72;;
76310;SDS011;65120;59.304;18.294;2023-02-08T05:54:14;17.38;;;3.95;;
76310;SDS011;65120;59.304;18.294;2023-02-08T05:56:41;14.55;;;5.38;;
76310;SDS011;65120;59.304;18.294;2023-02-08T05:59:08;19.67;;;4.65;;
76310;SDS011;65120;59.304;18.294;2023-02-08T06:01:35;13.00;;;3.42;;
76310;SDS011;65120;59.304;18.294;2023-02-08T06:04:02;21.08;;;3.88;;
76310;SDS011;65120;59.304;18.294;2023-02-08T06:06:31;17.67;;;5.40;;
76310;SDS011;65120;59.304;18.294;2023-02-08T06:08:58;26.00;;;4.35;;
76310;SDS011;65120;59.304;18.294;2023-02-08T06:11:24;17.88;;;4.05;;
76310;SDS011;65120;59.304;18.294;2023-02-08T06:13:52;19.88;;;4.22;;
76310;SDS011;65120;59.304;18.294;2023-02-08T06:16:18;19.08;;;4.50;;
76310;SDS011;65120;59.304;18.294;2023-02-08T06:18:45;25.77;;;5.00;;
76310;SDS011;65120;59.304;18.294;2023-02-08T06:21:12;22.08;;;4.80;;
76310;SDS011;65120;59.304;18.294;2023-02-08T06:23:41;14.93;;;4.30;;
76310;SDS011;65120;59.304;18.294;2023-02-08T06:26:07;21.08;;;4.30;;
76310;SDS011;65120;59.304;18.294;2023-02-08T06:28:34;15.65;;;5.32;;
76310;SDS011;65120;59.304;18.294;2023-02-08T06:31:01;21.92;;;5.60;;
76310;SDS011;65120;59.304;18.294;2023-02-08T06:33:28;23.17;;;4.93;;
76310;SDS011;65120;59.304;18.294;2023-02-08T06:35:55;11.15;;;4.53;;
76310;SDS011;65120;59.304;18.294;2023-02-08T06:38:21;25.17;;;5.22;;
76310;SDS011;65120;59.304;18.294;2023-02-08T06:40:50;16.55;;;4.18;;
76310;SDS011;65120;59.304;18.294;2023-02-08T06:43:17;19.33;;;4.80;;
76310;SDS011;65120;59.304;18.294;2023-02-08T06:45:44;20.75;;;5.75;;
76310;SDS011;65120;59.304;18.294;2023-02-08T06:48:11;25.48;;;5.38;;
76310;SDS011;65120;59.304;18.294;2023-02-08T06:50:38;16.88;;;6.55;;
76310;SDS011;65120;59.304;18.294;2023-02-08T06:53:05;18.33;;;5.55;;
76310;SDS011;65120;59.304;18.294;2023-02-08T06:55:32;22.25;;;4.45;;
76310;SDS011;65120;59.304;18.294;2023-02-08T06:58:00;28.48;;;5.20;;
76310;SDS011;65120;59.304;18.294;2023-02-08T07:00:27;21.63;;;5.40;;
76310;SDS011;65120;59.304;18.294;2023-02-08T07:02:54;17.33;;;4.90;;
76310;SDS011;65120;59.304;18.294;2023-02-08T07:05:21;24.00;;;5.32;;
76310;SDS011;65120;59.304;18.294;2023-02-08T07:07:48;20.65;;;5.32;;
76310;SDS011;65120;59.304;18.294;2023-02-08T07:10:15;27.70;;;6.15;;
76310;SDS011;65120;59.304;18.294;2023-02-08T07:12:42;23.80;;;5.88;;
76310;SDS011;65120;59.304;18.294;2023-02-08T07:15:10;26.65;;;5.00;;
76310;SDS011;65120;59.304;18.294;2023-02-08T07:17:38;24.60;;;5.22;;
76310;SDS011;65120;59.304;18.294;2023-02-08T07:20:05;20.42;;;5.78;;
76310;SDS011;65120;59.304;18.294;2023-02-08T07:22:33;17.20;;;4.93;;
76310;SDS011;65120;59.304;18.294;2023-02-08T07:25:00;15.93;;;4.90;;
76310;SDS011;65120;59.304;18.294;2023-02-08T07:27:27;20.83;;;6.18;;
76310;SDS011;65120;59.304;18.294;2023-02-08T07:29:54;19.15;;;6.30;;
76310;SDS011;65120;59.304;18.294;2023-02-08T07:32:22;23.70;;;5.03;;
76310;SDS011;65120;59.304;18.294;2023-02-08T07:34:49;13.70;;;3.80;;
76310;SDS011;65120;59.304;18.294;2023-02-08T07:37:16;15.40;;;4.53;;
76310;SDS011;65120;59.304;18.294;2023-02-08T07:39:42;17.35;;;4.45;;
76310;SDS011;65120;59.304;18.294;2023-02-08T07:42:10;23.58;;;5.10;;
76310;SDS011;65120;59.304;18.294;2023-02-08T07:44:37;14.75;;;4.25;;
76310;SDS011;65120;59.304;18.294;2023-02-08T07:47:04;14.75;;;4.82;;
76310;SDS011;65120;59.304;18.294;2023-02-08T07:49:33;20.60;;;4.88;;
76310;SDS011;65120;59.304;18.294;2023-02-08T07:52:00;18.23;;;4.75;;
76310;SDS011;65120;59.304;18.294;2023-02-08T07:54:27;21.67;;;4.57;;
76310;SDS011;65120;59.304;18.294;2023-02-08T07:56:54;22.65;;;5.22;;
76310;SDS011;65120;59.304;18.294;2023-02-08T07:59:21;21.45;;;5.18;;
76310;SDS011;65120;59.304;18.294;2023-02-08T08:01:48;17.52;;;4.28;;
76310;SDS011;65120;59.304;18.294;2023-02-08T08:04:15;18.58;;;3.92;;
76310;SDS011;65120;59.304;18.294;2023-02-08T08:06:45;12.98;;;3.78;;
76310;SDS011;65120;59.304;18.294;2023-02-08T08:09:13;21.75;;;4.72;;
76310;SDS011;65120;59.304;18.294;2023-02-08T08:11:40;19.27;;;5.13;;
76310;SDS011;65120;59.304;18.294;2023-02-08T08:14:07;20.70;;;5.45;;
76310;SDS011;65120;59.304;18.294;2023-02-08T08:16:34;20.27;;;4.55;;
76310;SDS011;65120;59.304;18.294;2023-02-08T08:19:01;14.20;;;5.10;;
76310;SDS011;65120;59.304;18.294;2023-02-08T08:21:28;26.02;;;4.90;;
76310;SDS011;65120;59.304;18.294;2023-02-08T08:23:56;20.50;;;5.32;;
76310;SDS011;65120;59.304;18.294;2023-02-08T08:26:23;18.90;;;5.30;;
76310;SDS011;65120;59.304;18.294;2023-02-08T08:28:50;26.50;;;6.15;;
76310;SDS011;65120;59.304;18.294;2023-02-08T08:31:18;20.85;;;5.50;;
76310;SDS011;65120;59.304;18.294;2023-02-08T08:33:46;13.70;;;3.90;;
76310;SDS011;65120;59.304;18.294;2023-02-08T08:36:13;18.10;;;3.75;;
76310;SDS011;65120;59.304;18.294;2023-02-08T08:38:40;17.98;;;3.83;;
76310;SDS011;65120;59.304;18.294;2023-02-08T08:41:09;10.98;;;3.58;;
76310;SDS011;65120;59.304;18.294;2023-02-08T08:43:38;13.88;;;4.32;;
76310;SDS011;65120;59.304;18.294;2023-02-08T08:46:05;18.60;;;4.60;;
76310;SDS011;65120;59.304;18.294;2023-02-08T08:48:32;14.40;;;4.07;;
76310;SDS011;65120;59.304;18.294;2023-02-08T08:51:00;26.20;;;6.72;;
76310;SDS011;65120;59.304;18.294;2023-02-08T08:53:27;14.65;;;3.58;;
76310;SDS011;65120;59.304;18.294;2023-02-08T08:55:54;13.80;;;4.15;;
76310;SDS011;65120;59.304;18.294;2023-02-08T08:58:22;23.13;;;4.85;;
76310;SDS011;65120;59.304;18.294;2023-02-08T09:00:49;10.27;;;3.85;;
76310;SDS011;65120;59.304;18.294;2023-02-08T09:03:16;16.05;;;4.32;;
76310;SDS011;65120;59.304;18.294;2023-02-08T09:05:42;10.63;;;3.80;;
76310;SDS011;65120;59.304;18.294;2023-02-08T09:08:09;11.75;;;3.40;;
76310;SDS011;65120;59.304;18.294;2023-02-08T09:10:37;15.82;;;3.42;;
76310;SDS011;65120;59.304;18.294;2023-02-08T09:13:04;14.48;;;2.55;;
76310;SDS011;65120;59.304;18.294;2023-02-08T09:15:33;12.32;;;2.85;;
76310;SDS011;65120;59.304;18.294;2023-02-08T09:18:03;16.98;;;2.65;;
76310;SDS011;65120;59.304;18.294;2023-02-08T09:20:30;9.48;;;2.80;;
76310;SDS011;65120;59.304;18.294;2023-02-08T09:22:57;13.45;;;2.88;;
76310;SDS011;65120;59.304;18.294;2023-02-08T09:25:23;9.88;;;2.58;;
76310;SDS011;65120;59.304;18.294;2023-02-08T09:27:51;18.10;;;2.88;;
76310;SDS011;65120;59.304;18.294;2023-02-08T09:30:18;17.00;;;4.43;;
76310;SDS011;65120;59.304;18.294;2023-02-08T09:32:46;18.80;;;3.75;;
76310;SDS011;65120;59.304;18.294;2023-02-08T09:35:13;17.55;;;2.65;;
76310;SDS011;65120;59.304;18.294;2023-02-08T09:37:40;13.45;;;2.85;;
76310;SDS011;65120;59.304;18.294;2023-02-08T09:40:09;13.55;;;3.10;;
76310;SDS011;65120;59.304;18.294;2023-02-08T09:42:46;13.35;;;2.55;;
76310;SDS011;65120;59.304;18.294;2023-02-08T09:45:25;11.63;;;2.38;;
76310;SDS011;65120;59.304;18.294;2023-02-08T09:48:06;21.17;;;3.30;;
76310;SDS011;65120;59.304;18.294;2023-02-08T09:50:42;12.15;;;3.58;;
76310;SDS011;65120;59.304;18.294;2023-02-08T09:53:14;9.93;;;2.50;;
76310;SDS011;65120;59.304;18.294;2023-02-08T09:55:45;7.40;;;2.88;;
76310;SDS011;65120;59.304;18.294;2023-02-08T09:58:16;12.40;;;2.53;;
76310;SDS011;65120;59.304;18.294;2023-02-08T10:00:48;9.60;;;2.38;;
76310;SDS011;65120;59.304;18.294;2023-02-08T10:03:24;8.77;;;2.22;;
76310;SDS011;65120;59.304;18.294;2023-02-08T10:05:55;12.95;;;4.30;;
76310;SDS011;65120;59.304;18.294;2023-02-08T10:08:22;15.50;;;2.20;;
76310;SDS011;65120;59.304;18.294;2023-02-08T10:10:52;12.82;;;3.30;;
76310;SDS011;65120;59.304;18.294;2023-02-08T10:13:26;11.18;;;2.88;;
76310;SDS011;65120;59.304;18.294;2023-02-08T10:16:06;14.77;;;2.85;;
76310;SDS011;65120;59.304;18.294;2023-02-08T10:18:42;11.50;;;2.00;;
76310;SDS011;65120;59.304;18.294;2023-02-08T10:21:22;15.52;;;2.70;;
76310;SDS011;65120;59.304;18.294;2023-02-08T10:24:04;10.73;;;2.23;;
76310;SDS011;65120;59.304;18.294;2023-02-08T10:26:46;15.93;;;2.97;;
76310;SDS011;65120;59.304;18.294;2023-02-08T10:29:26;11.68;;;2.08;;
76310;SDS011;65120;59.304;18.294;2023-02-08T10:32:06;9.07;;;1.52;;
76310;SDS011;65120;59.304;18.294;2023-02-08T10:34:48;10.80;;;2.47;;
76310;SDS011;65120;59.304;18.294;2023-02-08T10:37:20;9.35;;;2.38;;
76310;SDS011;65120;59.304;18.294;2023-02-08T10:39:54;4.95;;;1.92;;
76310;SDS011;65120;59.304;18.294;2023-02-08T10:42:22;7.20;;;1.55;;
76310;SDS011;65120;59.304;18.294;2023-02-08T10:44:55;12.77;;;2.45;;
76310;SDS011;65120;59.304;18.294;2023-02-08T10:47:36;11.98;;;2.60;;
76310;SDS011;65120;59.304;18.294;2023-02-08T10:50:14;7.00;;;1.85;;
76310;SDS011;65120;59.304;18.294;2023-02-08T10:52:46;6.18;;;1.50;;
76310;SDS011;65120;59.304;18.294;2023-02-08T10:55:13;9.55;;;2.38;;
76310;SDS011;65120;59.304;18.294;2023-02-08T10:57:41;7.32;;;1.25;;
76310;SDS011;65120;59.304;18.294;2023-02-08T11:00:10;6.13;;;1.27;;
76310;SDS011;65120;59.304;18.294;2023-02-08T11:02:43;8.60;;;1.50;;
76310;SDS011;65120;59.304;18.294;2023-02-08T11:05:13;17.48;;;1.30;;
76310;SDS011;65120;59.304;18.294;2023-02-08T11:07:42;10.52;;;1.50;;
76310;SDS011;65120;59.304;18.294;2023-02-08T11:10:13;7.35;;;1.88;;
76310;SDS011;65120;59.304;18.294;2023-02-08T11:12:54;9.20;;;1.52;;
76310;SDS011;65120;59.304;18.294;2023-02-08T11:17:52;9.18;;;1.20;;
76310;SDS011;65120;59.304;18.294;2023-02-08T11:20:24;3.03;;;0.82;;
76310;SDS011;65120;59.304;18.294;2023-02-08T11:22:56;17.80;;;1.42;;
76310;SDS011;65120;59.304;18.294;2023-02-08T11:25:31;4.72;;;1.08;;
76310;SDS011;65120;59.304;18.294;2023-02-08T11:28:00;10.68;;;1.60;;
76310;SDS011;65120;59.304;18.294;2023-02-08T11:30:27;4.00;;;1.40;;
76310;SDS011;65120;59.304;18.294;2023-02-08T11:33:13;6.88;;;1.15;;
76310;SDS011;65120;59.304;18.294;2023-02-08T11:35:46;7.95;;;1.30;;
76310;SDS011;65120;59.304;18.294;2023-02-08T11:38:23;8.50;;;1.17;;
76310;SDS011;65120;59.304;18.294;2023-02-08T11:40:52;6.43;;;1.05;;
76310;SDS011;65120;59.304;18.294;2023-02-08T11:43:22;11.27;;;1.58;;
76310;SDS011;65120;59.304;18.294;2023-02-08T11:45:52;9.27;;;0.90;;
76310;SDS011;65120;59.304;18.294;2023-02-08T11:48:21;4.57;;;1.00;;
76310;SDS011;65120;59.304;18.294;2023-02-08T11:50:56;7.40;;;1.23;;
76310;SDS011;65120;59.304;18.294;2023-02-08T11:53:27;8.43;;;1.53;;
76310;SDS011;65120;59.304;18.294;2023-02-08T11:56:05;13.77;;;1.50;;
76310;SDS011;65120;59.304;18.294;2023-02-08T11:58:40;7.15;;;1.08;;
76310;SDS011;65120;59.304;18.294;2023-02-08T12:01:16;3.75;;;1.00;;
76310;SDS011;65120;59.304;18.294;2023-02-08T12:03:45;5.20;;;2.03;;
76310;SDS011;65120;59.304;18.294;2023-02-08T12:06:24;9.55;;;1.30;;
76310;SDS011;65120;59.304;18.294;2023-02-08T12:09:13;6.57;;;0.90;;
76310;SDS011;65120;59.304;18.294;2023-02-08T12:11:53;4.65;;;1.13;;
76310;SDS011;65120;59.304;18.294;2023-02-08T12:14:33;13.80;;;2.00;;
76310;SDS011;65120;59.304;18.294;2023-02-08T12:17:18;8.77;;;1.23;;
76310;SDS011;65120;59.304;18.294;2023-02-08T12:20:08;14.57;;;2.00;;
76310;SDS011;65120;59.304;18.294;2023-02-08T12:22:53;5.45;;;0.90;;
76310;SDS011;65120;59.304;18.294;2023-02-08T12:25:27;5.55;;;1.38;;
76310;SDS011;65120;59.304;18.294;2023-02-08T12:28:04;10.32;;;1.83;;
76310;SDS011;65120;59.304;18.294;2023-02-08T12:30:36;6.10;;;1.25;;
76310;SDS011;65120;59.304;18.294;2023-02-08T12:33:15;7.03;;;1.83;;
76310;SDS011;65120;59.304;18.294;2023-02-08T12:36:00;6.22;;;1.30;;
76310;SDS011;65120;59.304;18.294;2023-02-08T12:38:41;3.88;;;0.88;;
76310;SDS011;65120;59.304;18.294;2023-02-08T12:41:34;6.15;;;1.13;;
76310;SDS011;65120;59.304;18.294;2023-02-08T12:44:09;4.17;;;0.83;;
76310;SDS011;65120;59.304;18.294;2023-02-08T12:46:50;8.90;;;1.27;;
76310;SDS011;65120;59.304;18.294;2023-02-08T12:49:34;7.35;;;2.20;;
76310;SDS011;65120;59.304;18.294;2023-02-08T12:52:12;5.13;;;0.98;;
76310;SDS011;65120;59.304;18.294;2023-02-08T12:54:51;6.47;;;1.00;;
76310;SDS011;65120;59.304;18.294;2023-02-08T12:57:23;3.15;;;0.98;;
76310;SDS011;65120;59.304;18.294;2023-02-08T12:59:53;5.60;;;1.40;;
76310;SDS011;65120;59.304;18.294;2023-02-08T13:02:24;6.75;;;1.25;;
76310;SDS011;65120;59.304;18.294;2023-02-08T13:04:55;6.25;;;1.23;;
76310;SDS011;65120;59.304;18.294;2023-02-08T13:07:28;3.13;;;0.90;;
76310;SDS011;65120;59.304;18.294;2023-02-08T13:10:01;4.30;;;0.88;;
76310;SDS011;65120;59.304;18.294;2023-02-08T13:12:32;5.25;;;1.15;;
76310;SDS011;65120;59.304;18.294;2023-02-08T13:15:03;8.48;;;1.10;;
76310;SDS011;65120;59.304;18.294;2023-02-08T13:17:38;11.48;;;2.22;;
76310;SDS011;65120;59.304;18.294;2023-02-08T13:20:19;5.50;;;1.33;;
76310;SDS011;65120;59.304;18.294;2023-02-08T13:22:55;6.70;;;0.77;;
76310;SDS011;65120;59.304;18.294;2023-02-08T13:25:29;5.80;;;0.80;;
76310;SDS011;65120;59.304;18.294;2023-02-08T13:28:00;3.92;;;1.65;;
76310;SDS011;65120;59.304;18.294;2023-02-08T13:30:28;3.92;;;0.70;;
76310;SDS011;65120;59.304;18.294;2023-02-08T13:32:55;3.63;;;0.90;;
76310;SDS011;65120;59.304;18.294;2023-02-08T13:35:24;6.07;;;0.85;;
76310;SDS011;65120;59.304;18.294;2023-02-08T13:37:54;5.50;;;1.58;;
76310;SDS011;65120;59.304;18.294;2023-02-08T13:40:29;7.75;;;0.90;;
76310;SDS011;65120;59.304;18.294;2023-02-08T13:42:59;3.92;;;0.70;;
76310;SDS011;65120;59.304;18.294;2023-02-08T13:45:28;11.23;;;1.10;;
76310;SDS011;65120;59.304;18.294;2023-02-08T13:47:58;4.18;;;0.88;;
76310;SDS011;65120;59.304;18.294;2023-02-08T13:50:37;9.85;;;1.27;;
76310;SDS011;65120;59.304;18.294;2023-02-08T13:53:07;2.05;;;0.60;;
76310;SDS011;65120;59.304;18.294;2023-02-08T13:55:39;10.13;;;1.13;;
76310;SDS011;65120;59.304;18.294;2023-02-08T13:58:27;6.40;;;0.80;;
76310;SDS011;65120;59.304;18.294;2023-02-08T14:01:11;5.07;;;0.83;;
76310;SDS011;65120;59.304;18.294;2023-02-08T14:03:45;1.92;;;1.08;;
76310;SDS011;65120;59.304;18.294;2023-02-08T14:06:54;4.55;;;1.02;;
76310;SDS011;65120;59.304;18.294;2023-02-08T14:09:26;4.80;;;0.82;;
76310;SDS011;65120;59.304;18.294;2023-02-08T14:12:01;5.97;;;0.70;;
76310;SDS011;65120;59.304;18.294;2023-02-08T14:14:30;2.50;;;1.10;;
76310;SDS011;65120;59.304;18.294;2023-02-08T14:17:17;2.92;;;0.70;;
76310;SDS011;65120;59.304;18.294;2023-02-08T14:19:54;5.90;;;0.65;;
76310;SDS011;65120;59.304;18.294;2023-02-08T14:22:22;5.65;;;1.00;;
76310;SDS011;65120;59.304;18.294;2023-02-08T14:24:58;1.92;;;0.93;;
76310;SDS011;65120;59.304;18.294;2023-02-08T14:27:30;4.10;;;0.75;;
76310;SDS011;65120;59.304;18.294;2023-02-08T14:30:04;4.00;;;0.65;;
76310;SDS011;65120;59.304;18.294;2023-02-08T14:32:36;3.00;;;0.60;;
76310;SDS011;65120;59.304;18.294;2023-02-08T14:35:05;1.73;;;0.77;;
76310;SDS011;65120;59.304;18.294;2023-02-08T14:37:43;3.30;;;0.70;;
76310;SDS011;65120;59.304;18.294;2023-02-08T14:43:29;5.18;;;0.77;;
76310;SDS011;65120;59.304;18.294;2023-02-08T14:48:58;2.13;;;0.63;;
76310;SDS011;65120;59.304;18.294;2023-02-08T14:51:26;4.40;;;0.70;;
76310;SDS011;65120;59.304;18.294;2023-02-08T14:54:00;2.15;;;0.68;;
76310;SDS011;65120;59.304;18.294;2023-02-08T14:56:42;1.65;;;0.40;;
76310;SDS011;65120;59.304;18.294;2023-02-08T14:59:17;2.28;;;0.77;;